createdAt,value
2018-03-26T00:01:54.381Z,6.20
2018-03-26T00:04:22.739Z,6.20
2018-03-26T00:06:50.483Z,6.20
2018-03-26T00:09:18.050Z,6.20
2018-03-26T00:11:47.288Z,6.20
2018-03-26T00:14:15.462Z,6.20
2018-03-26T00:16:43.014Z,6.20
2018-03-26T00:19:11.159Z,6.20
2018-03-26T00:21:38.714Z,6.10
2018-03-26T00:24:06.239Z,6.10
2018-03-26T00:26:33.832Z,6.10
2018-03-26T00:29:01.486Z,6.10
2018-03-26T00:31:29.005Z,6.10
2018-03-26T00:33:57.314Z,6.10
2018-03-26T00:36:25.380Z,6.10
2018-03-26T00:38:52.931Z,6.10
2018-03-26T00:41:20.476Z,6.10
2018-03-26T00:43:48.344Z,6.00
2018-03-26T00:46:17.464Z,6.00
2018-03-26T00:48:44.984Z,6.00
2018-03-26T00:51:12.560Z,6.00
2018-03-26T00:53:43.935Z,5.90
2018-03-26T00:56:11.967Z,5.90
2018-03-26T00:58:40.290Z,5.90
2018-03-26T01:01:07.839Z,5.90
2018-03-26T01:03:35.415Z,5.90
2018-03-26T01:06:03.006Z,5.90
2018-03-26T01:08:31.416Z,5.90
2018-03-26T01:10:59.011Z,5.80
2018-03-26T01:13:27.307Z,5.80
2018-03-26T01:15:55.350Z,5.80
2018-03-26T01:18:22.898Z,5.70
2018-03-26T01:20:50.465Z,5.80
2018-03-26T01:23:18.026Z,5.70
2018-03-26T01:25:46.464Z,5.70
2018-03-26T01:28:15.374Z,5.80
2018-03-26T01:30:42.941Z,5.80
2018-03-26T01:33:11.247Z,5.70
2018-03-26T01:35:38.774Z,5.70
2018-03-26T01:38:07.113Z,5.70
2018-03-26T01:40:35.235Z,5.70
2018-03-26T01:43:02.795Z,5.80
2018-03-26T01:45:30.338Z,5.80
2018-03-26T01:47:57.917Z,5.80
2018-03-26T01:50:27.470Z,5.80
2018-03-26T01:52:55.443Z,5.80
2018-03-26T01:55:22.965Z,5.80
2018-03-26T01:57:50.603Z,5.70
2018-03-26T02:00:18.394Z,5.70
2018-03-26T02:02:45.921Z,5.70
2018-03-26T02:05:13.730Z,5.70
2018-03-26T02:07:41.300Z,5.70
2018-03-26T02:10:08.855Z,5.70
2018-03-26T02:12:36.391Z,5.70
2018-03-26T02:15:04.480Z,5.70
2018-03-26T02:17:32.027Z,5.70
2018-03-26T02:19:59.709Z,5.70
2018-03-26T02:22:31.725Z,5.70
2018-03-26T02:25:00.044Z,5.70
2018-03-26T02:27:28.623Z,5.70
2018-03-26T02:29:56.865Z,5.70
2018-03-26T02:32:25.915Z,5.60
2018-03-26T02:34:53.958Z,5.60
2018-03-26T02:37:21.520Z,5.60
2018-03-26T02:39:49.107Z,5.60
2018-03-26T02:42:16.951Z,5.60
2018-03-26T02:44:45.094Z,5.60
2018-03-26T02:47:13.386Z,5.60
2018-03-26T02:49:40.924Z,5.60
2018-03-26T02:52:09.030Z,5.60
2018-03-26T02:54:36.579Z,5.70
2018-03-26T02:57:04.131Z,5.60
2018-03-26T02:59:31.681Z,5.60
2018-03-26T03:01:59.971Z,5.60
2018-03-26T03:04:27.521Z,5.60
2018-03-26T03:06:55.062Z,5.60
2018-03-26T03:09:23.287Z,5.60
2018-03-26T03:11:51.588Z,5.60
2018-03-26T03:14:19.135Z,5.50
2018-03-26T03:16:46.663Z,5.60
2018-03-26T03:19:14.265Z,5.60
2018-03-26T03:21:41.809Z,5.60
2018-03-26T03:24:09.591Z,5.50
2018-03-26T03:26:37.142Z,5.60
2018-03-26T03:29:05.573Z,5.60
2018-03-26T03:31:33.095Z,5.60
2018-03-26T03:34:01.668Z,5.60
2018-03-26T03:36:30.514Z,5.60
2018-03-26T03:38:59.643Z,5.60
2018-03-26T03:41:27.196Z,5.60
2018-03-26T03:43:55.602Z,5.60
2018-03-26T03:46:23.166Z,5.60
2018-03-26T03:48:50.724Z,5.60
2018-03-26T03:51:18.849Z,5.60
2018-03-26T03:53:47.170Z,5.60
2018-03-26T03:56:15.331Z,5.60
2018-03-26T03:58:42.889Z,5.60
2018-03-26T04:01:10.443Z,5.60
2018-03-26T04:03:37.983Z,5.60
2018-03-26T04:06:06.291Z,5.60
2018-03-26T04:08:33.954Z,5.60
2018-03-26T04:11:01.528Z,5.60
2018-03-26T04:13:29.927Z,5.60
2018-03-26T04:15:57.459Z,5.50
2018-03-26T04:18:25.533Z,5.50
2018-03-26T04:20:53.079Z,5.50
2018-03-26T04:23:20.661Z,5.50
2018-03-26T04:25:49.514Z,5.50
2018-03-26T04:28:17.831Z,5.50
2018-03-26T04:30:45.940Z,5.40
2018-03-26T04:33:15.065Z,5.40
2018-03-26T04:35:42.638Z,5.40
2018-03-26T04:38:10.186Z,5.40
2018-03-26T04:40:38.234Z,5.40
2018-03-26T04:43:05.779Z,5.40
2018-03-26T04:45:33.318Z,5.30
2018-03-26T04:48:00.823Z,5.40
2018-03-26T04:50:30.034Z,5.40
2018-03-26T04:52:57.643Z,5.40
2018-03-26T04:55:26.022Z,5.40
2018-03-26T04:57:53.824Z,5.40
2018-03-26T05:00:21.404Z,5.40
2018-03-26T05:02:48.953Z,5.40
2018-03-26T05:05:16.477Z,5.40
2018-03-26T05:07:45.843Z,5.10
2018-03-26T05:10:13.404Z,4.90
2018-03-26T05:12:40.962Z,4.80
2018-03-26T05:15:09.190Z,4.80
2018-03-26T05:17:36.765Z,4.90
2018-03-26T05:20:04.323Z,5.00
2018-03-26T05:22:31.842Z,4.60
2018-03-26T05:24:59.436Z,4.40
2018-03-26T05:27:26.989Z,4.50
2018-03-26T05:29:55.035Z,4.70
2018-03-26T05:32:22.575Z,4.80
2018-03-26T05:34:50.175Z,4.90
2018-03-26T05:37:17.708Z,4.90
2018-03-26T05:39:45.959Z,5.00
2018-03-26T05:42:14.762Z,5.00
2018-03-26T05:44:42.353Z,5.10
2018-03-26T05:47:09.917Z,5.20
2018-03-26T05:49:38.735Z,5.30
2018-03-26T05:52:06.256Z,5.30
2018-03-26T05:54:35.182Z,5.40
2018-03-26T05:57:03.305Z,5.40
2018-03-26T05:59:31.061Z,5.50
2018-03-26T06:01:58.610Z,5.50
2018-03-26T06:04:26.483Z,5.60
2018-03-26T06:06:55.001Z,5.60
2018-03-26T06:09:22.571Z,5.60
2018-03-26T06:11:50.143Z,5.70
2018-03-26T06:14:17.676Z,5.70
2018-03-26T06:16:52.793Z,5.70
2018-03-26T06:19:20.522Z,5.80
2018-03-26T06:21:48.051Z,5.80
2018-03-26T06:24:16.344Z,5.90
2018-03-26T06:26:44.686Z,5.80
2018-03-26T06:29:12.237Z,5.90
2018-03-26T06:31:39.800Z,5.90
2018-03-26T06:34:08.115Z,5.90
2018-03-26T06:36:53.411Z,5.80
2018-03-26T06:39:21.556Z,5.80
2018-03-26T06:41:49.090Z,5.90
2018-03-26T06:44:17.168Z,6.00
2018-03-26T06:46:45.184Z,6.00
2018-03-26T06:49:12.771Z,6.10
2018-03-26T06:51:40.321Z,6.10
2018-03-26T06:54:09.466Z,6.20
2018-03-26T06:56:38.348Z,6.10
2018-03-26T06:59:06.103Z,6.10
2018-03-26T07:01:34.283Z,6.10
2018-03-26T07:04:01.823Z,6.10
2018-03-26T07:06:29.948Z,6.10
2018-03-26T07:08:57.514Z,6.20
2018-03-26T07:11:25.524Z,6.20
2018-03-26T07:13:53.062Z,6.20
2018-03-26T07:16:20.627Z,6.10
2018-03-26T07:18:48.183Z,6.10
2018-03-26T07:21:15.727Z,6.20
2018-03-26T07:23:43.287Z,6.20
2018-03-26T07:26:10.827Z,6.30
2018-03-26T07:28:39.147Z,6.30
2018-03-26T07:31:07.595Z,6.30
2018-03-26T07:33:36.022Z,6.40
2018-03-26T07:36:04.377Z,6.40
2018-03-26T07:38:32.036Z,6.40
2018-03-26T07:40:59.598Z,6.50
2018-03-26T07:43:27.125Z,6.60
2018-03-26T07:45:55.256Z,6.70
2018-03-26T07:48:22.988Z,6.80
2018-03-26T07:50:50.874Z,6.90
2018-03-26T07:53:18.420Z,6.90
2018-03-26T07:55:45.954Z,6.90
2018-03-26T07:58:14.132Z,7.00
2018-03-26T08:00:42.007Z,7.00
2018-03-26T08:03:09.566Z,7.00
2018-03-26T08:05:37.175Z,7.00
2018-03-26T08:08:05.195Z,7.10
2018-03-26T08:10:33.361Z,7.20
2018-03-26T08:13:01.364Z,7.20
2018-03-26T08:15:28.913Z,7.30
2018-03-26T08:17:56.483Z,7.30
2018-03-26T08:20:24.012Z,7.30
2018-03-26T08:22:51.575Z,7.30
2018-03-26T08:25:19.123Z,7.30
2018-03-26T08:27:46.699Z,7.30
2018-03-26T08:30:14.226Z,7.40
2018-03-26T08:32:42.229Z,7.50
2018-03-26T08:35:09.787Z,7.60
2018-03-26T08:37:37.302Z,7.60
2018-03-26T08:40:05.668Z,7.60
2018-03-26T08:42:33.185Z,7.50
2018-03-26T08:45:00.718Z,7.60
2018-03-26T08:47:29.240Z,7.70
2018-03-26T08:49:56.833Z,7.70
2018-03-26T08:52:25.679Z,7.60
2018-03-26T08:54:53.195Z,7.60
2018-03-26T08:57:20.770Z,7.60
2018-03-26T08:59:49.067Z,7.80
2018-03-26T09:02:16.662Z,7.70
2018-03-26T09:04:44.227Z,7.80
2018-03-26T09:07:12.878Z,7.90
2018-03-26T09:09:40.408Z,8.00
2018-03-26T09:12:07.982Z,8.10
2018-03-26T09:14:37.072Z,8.20
2018-03-26T09:17:05.498Z,8.30
2018-03-26T09:19:33.262Z,8.30
2018-03-26T09:22:00.915Z,8.40
2018-03-26T09:24:28.954Z,8.30
2018-03-26T09:26:57.550Z,8.30
2018-03-26T09:29:26.366Z,8.50
2018-03-26T09:31:54.026Z,8.50
2018-03-26T09:34:21.591Z,8.60
2018-03-26T09:36:49.616Z,8.70
2018-03-26T09:39:17.324Z,8.80
2018-03-26T09:41:45.468Z,8.80
2018-03-26T09:44:16.383Z,8.80
2018-03-26T09:46:44.035Z,8.70
2018-03-26T09:49:11.586Z,8.50
2018-03-26T09:51:39.144Z,8.60
2018-03-26T09:54:06.671Z,8.50
2018-03-26T09:56:34.852Z,8.60
2018-03-26T09:59:02.422Z,8.60
2018-03-26T10:01:31.795Z,8.70
2018-03-26T10:03:59.342Z,8.70
2018-03-26T10:06:28.856Z,8.60
2018-03-26T10:08:56.386Z,8.60
2018-03-26T10:11:24.524Z,8.70
2018-03-26T10:13:52.059Z,8.80
2018-03-26T10:16:19.581Z,9.00
2018-03-26T10:18:47.905Z,9.10
2018-03-26T10:21:16.262Z,9.10
2018-03-26T10:23:43.817Z,9.10
2018-03-26T10:26:12.198Z,9.10
2018-03-26T10:28:39.763Z,8.90
2018-03-26T10:31:07.324Z,8.80
2018-03-26T10:33:35.325Z,8.80
2018-03-26T10:36:02.909Z,8.70
2018-03-26T10:38:31.127Z,8.70
2018-03-26T10:40:58.647Z,8.60
2018-03-26T10:43:26.700Z,8.80
2018-03-26T10:45:54.257Z,9.00
2018-03-26T10:48:21.797Z,8.60
2018-03-26T10:50:49.360Z,8.70
2018-03-26T10:53:17.640Z,8.80
2018-03-26T10:55:45.909Z,8.90
2018-03-26T10:58:13.426Z,9.00
2018-03-26T11:00:42.508Z,9.20
2018-03-26T11:03:10.793Z,9.20
2018-03-26T11:05:38.337Z,9.20
2018-03-26T11:08:06.172Z,9.20
2018-03-26T11:10:33.975Z,9.20
2018-03-26T11:13:03.009Z,9.10
2018-03-26T11:15:31.182Z,9.10
2018-03-26T11:17:58.719Z,9.20
2018-03-26T11:20:27.516Z,9.30
2018-03-26T11:22:55.966Z,9.30
2018-03-26T11:25:23.458Z,9.40
2018-03-26T11:27:51.743Z,9.40
2018-03-26T11:30:20.879Z,9.30
2018-03-26T11:32:48.388Z,9.30
2018-03-26T11:35:15.958Z,9.20
2018-03-26T11:37:43.494Z,9.00
2018-03-26T11:40:11.013Z,9.10
2018-03-26T11:42:38.568Z,9.10
2018-03-26T11:45:06.390Z,9.30
2018-03-26T11:47:34.330Z,9.50
2018-03-26T11:50:02.792Z,9.50
2018-03-26T11:52:30.899Z,9.50
2018-03-26T11:54:58.928Z,9.40
2018-03-26T11:57:26.547Z,9.50
2018-03-26T11:59:54.110Z,9.60
2018-03-26T12:02:21.653Z,9.60
2018-03-26T12:04:49.248Z,9.70
2018-03-26T12:07:17.358Z,9.80
2018-03-26T12:09:45.735Z,9.80
2018-03-26T12:12:13.268Z,9.90
2018-03-26T12:14:40.792Z,9.90
2018-03-26T12:17:09.216Z,9.70
2018-03-26T12:22:39.138Z,9.50
2018-03-26T12:25:17.840Z,9.40
2018-03-26T12:27:57.156Z,9.50
2018-03-26T12:30:26.768Z,9.50
2018-03-26T12:32:56.323Z,9.70
2018-03-26T12:35:35.842Z,9.70
2018-03-26T12:38:03.389Z,10.00
2018-03-26T12:40:42.768Z,10.20
2018-03-26T12:43:11.851Z,10.50
2018-03-26T12:45:51.116Z,10.50
2018-03-26T12:48:19.568Z,10.80
2018-03-26T12:50:59.024Z,10.80
2018-03-26T12:53:26.558Z,10.70
2018-03-26T12:55:54.149Z,10.20
2018-03-26T12:58:33.950Z,10.00
2018-03-26T13:01:14.059Z,9.90
2018-03-26T13:03:41.594Z,9.90
2018-03-26T13:06:10.358Z,9.90
2018-03-26T13:08:37.903Z,10.00
2018-03-26T13:11:07.631Z,9.80
2018-03-26T13:13:35.890Z,9.80
2018-03-26T13:16:04.199Z,10.00
2018-03-26T13:18:33.060Z,10.00
2018-03-26T13:21:01.349Z,10.10
2018-03-26T13:23:28.881Z,10.10
2018-03-26T13:25:56.476Z,10.30
2018-03-26T13:28:24.620Z,10.30
2018-03-26T13:30:52.515Z,10.40
2018-03-26T13:33:20.042Z,10.60
2018-03-26T13:35:47.572Z,10.60
2018-03-26T13:38:15.878Z,10.60
2018-03-26T13:40:43.403Z,10.70
2018-03-26T13:43:11.035Z,10.70
2018-03-26T13:45:38.582Z,10.70
2018-03-26T13:48:06.928Z,10.50
2018-03-26T13:50:34.930Z,10.60
2018-03-26T13:53:03.286Z,10.60
2018-03-26T13:55:31.590Z,10.70
2018-03-26T13:57:59.118Z,10.70
2018-03-26T14:00:26.675Z,10.70
2018-03-26T14:02:54.599Z,10.40
2018-03-26T14:05:22.261Z,10.30
2018-03-26T14:07:49.792Z,10.10
2018-03-26T14:10:30.615Z,10.10
2018-03-26T14:13:10.483Z,10.10
2018-03-26T14:15:49.878Z,10.30
2018-03-26T14:18:17.425Z,10.20
2018-03-26T14:20:45.105Z,10.30
2018-03-26T14:23:12.670Z,10.40
2018-03-26T14:25:41.086Z,10.20
2018-03-26T14:28:08.600Z,10.20
2018-03-26T14:30:36.565Z,10.30
2018-03-26T14:33:04.684Z,10.00
2018-03-26T14:35:47.132Z,9.90
2018-03-26T14:38:16.406Z,9.90
2018-03-26T14:40:44.526Z,9.80
2018-03-26T14:43:12.123Z,9.70
2018-03-26T14:45:39.623Z,9.70
2018-03-26T14:48:07.205Z,9.70
2018-03-26T14:50:35.328Z,9.80
2018-03-26T14:53:02.877Z,9.90
2018-03-26T14:55:30.465Z,10.10
2018-03-26T14:57:58.061Z,10.00
2018-03-26T15:00:26.512Z,10.20
2018-03-26T15:02:55.448Z,10.40
2018-03-26T15:05:22.981Z,10.40
2018-03-26T15:07:50.550Z,10.30
2018-03-26T15:10:18.077Z,10.40
2018-03-26T15:12:46.537Z,10.30
2018-03-26T15:15:14.958Z,10.40
2018-03-26T15:17:42.488Z,10.50
2018-03-26T15:20:11.780Z,10.50
2018-03-26T15:22:39.420Z,10.40
2018-03-26T15:25:06.947Z,10.40
2018-03-26T15:27:35.133Z,10.30
2018-03-26T15:30:02.667Z,10.30
2018-03-26T15:32:30.777Z,10.40
2018-03-26T15:34:58.297Z,10.30
2018-03-26T15:37:26.467Z,10.30
2018-03-26T15:39:54.024Z,10.40
2018-03-26T15:42:21.591Z,10.50
2018-03-26T15:44:49.135Z,10.50
2018-03-26T15:47:17.512Z,10.60
2018-03-26T15:49:45.837Z,10.50
2018-03-26T15:52:13.380Z,10.50
2018-03-26T15:54:40.919Z,10.40
2018-03-26T15:57:09.741Z,10.10
2018-03-26T15:59:37.269Z,10.10
2018-03-26T16:02:04.338Z,10.20
2018-03-26T16:04:31.887Z,9.80
2018-03-26T16:06:59.432Z,9.90
2018-03-26T16:09:26.986Z,9.70
2018-03-26T16:11:55.479Z,9.90
2018-03-26T16:14:23.010Z,9.90
2018-03-26T16:16:50.824Z,10.00
2018-03-26T16:19:18.355Z,10.10
2018-03-26T16:21:46.689Z,10.20
2018-03-26T16:24:15.927Z,10.20
2018-03-26T16:26:43.491Z,10.20
2018-03-26T16:29:11.767Z,9.70
2018-03-26T16:31:39.895Z,9.60
2018-03-26T16:34:07.441Z,9.50
2018-03-26T16:36:35.206Z,9.30
2018-03-26T16:39:02.779Z,9.30
2018-03-26T16:41:42.143Z,9.10
2018-03-26T16:44:09.707Z,9.00
2018-03-26T16:46:38.738Z,9.00
2018-03-26T16:49:06.281Z,9.00
2018-03-26T16:51:33.839Z,9.10
2018-03-26T16:54:02.255Z,8.90
2018-03-26T16:56:30.961Z,8.90
2018-03-26T16:58:58.499Z,8.90
2018-03-26T17:01:26.065Z,8.70
2018-03-26T17:03:53.762Z,8.70
2018-03-26T17:06:21.331Z,8.80
2018-03-26T17:08:49.626Z,9.00
2018-03-26T17:11:17.943Z,9.00
2018-03-26T17:13:46.193Z,9.00
2018-03-26T17:16:14.983Z,9.00
2018-03-26T17:18:42.939Z,9.10
2018-03-26T17:21:10.495Z,8.70
2018-03-26T17:23:38.033Z,8.80
2018-03-26T17:26:06.514Z,8.70
2018-03-26T17:28:34.037Z,8.50
2018-03-26T17:31:01.562Z,8.40
2018-03-26T17:33:29.119Z,8.40
2018-03-26T17:35:56.634Z,8.50
2018-03-26T17:38:24.214Z,8.60
2018-03-26T17:40:51.741Z,8.50
2018-03-26T17:43:19.272Z,8.50
2018-03-26T17:45:47.774Z,8.50
2018-03-26T17:48:15.318Z,8.70
2018-03-26T17:50:43.011Z,8.80
2018-03-26T17:53:10.770Z,8.80
2018-03-26T17:55:38.301Z,8.70
2018-03-26T17:58:05.815Z,8.60
2018-03-26T18:00:33.383Z,8.60
2018-03-26T18:03:00.944Z,8.80
2018-03-26T18:05:30.474Z,8.80
2018-03-26T18:07:58.058Z,8.80
2018-03-26T18:10:26.791Z,8.80
2018-03-26T18:12:54.469Z,8.80
2018-03-26T18:15:22.033Z,8.50
2018-03-26T18:17:50.320Z,8.60
2018-03-26T18:20:17.826Z,8.50
2018-03-26T18:22:45.358Z,8.50
2018-03-26T18:25:13.239Z,8.50
2018-03-26T18:27:40.803Z,8.60
2018-03-26T18:30:08.555Z,8.70
2018-03-26T18:32:36.613Z,8.90
2018-03-26T18:35:04.152Z,8.80
2018-03-26T18:37:32.518Z,8.70
2018-03-26T18:40:00.003Z,8.60
2018-03-26T18:42:28.932Z,8.70
2018-03-26T18:44:56.499Z,8.70
2018-03-26T18:47:24.060Z,8.80
2018-03-26T18:49:51.604Z,9.00
2018-03-26T18:52:19.384Z,9.10
2018-03-26T18:54:47.515Z,9.10
2018-03-26T18:57:16.460Z,9.10
2018-03-26T18:59:44.548Z,9.10
2018-03-26T19:02:12.181Z,9.20
2018-03-26T19:04:39.924Z,9.20
2018-03-26T19:07:07.478Z,9.30
2018-03-26T19:09:35.715Z,9.10
2018-03-26T19:12:03.282Z,9.30
2018-03-26T19:14:31.597Z,9.30
2018-03-26T19:16:59.122Z,9.30
2018-03-26T19:19:26.702Z,9.30
2018-03-26T19:21:54.226Z,9.40
2018-03-26T19:24:21.769Z,9.40
2018-03-26T19:26:49.303Z,9.50
2018-03-26T19:29:17.076Z,9.50
2018-03-26T19:31:45.952Z,9.50
2018-03-26T19:34:13.472Z,9.60
2018-03-26T19:36:42.262Z,9.70
2018-03-26T19:39:09.822Z,9.70
2018-03-26T19:41:38.441Z,9.70
2018-03-26T19:44:06.919Z,9.70
2018-03-26T19:46:34.647Z,9.70
2018-03-26T19:49:02.429Z,9.70
2018-03-26T19:51:30.218Z,9.70
2018-03-26T19:53:57.804Z,9.70
2018-03-26T19:56:25.564Z,9.70
2018-03-26T19:58:53.263Z,9.70
2018-03-26T20:01:22.807Z,9.80
2018-03-26T20:03:50.423Z,9.70
2018-03-26T20:06:18.001Z,9.70
2018-03-26T20:08:46.063Z,9.70
2018-03-26T20:11:14.365Z,9.70
2018-03-26T20:13:41.902Z,9.70
2018-03-26T20:16:11.164Z,9.60
2018-03-26T20:18:39.055Z,9.60
2018-03-26T20:21:06.647Z,9.70
2018-03-26T20:23:34.280Z,9.70
2018-03-26T20:26:02.443Z,9.70
2018-03-26T20:28:30.678Z,9.70
2018-03-26T20:30:58.403Z,9.80
2018-03-26T20:33:27.612Z,9.80
2018-03-26T20:35:55.352Z,9.80
2018-03-26T20:38:23.658Z,9.70
2018-03-26T20:40:52.012Z,9.70
2018-03-26T20:43:20.584Z,9.70
2018-03-26T20:45:48.103Z,9.70
2018-03-26T20:48:17.257Z,9.70
2018-03-26T20:50:47.394Z,9.70
2018-03-26T20:53:15.715Z,9.60
2018-03-26T20:55:43.422Z,9.60
2018-03-26T20:58:11.959Z,9.50
2018-03-26T21:00:39.872Z,9.50
2018-03-26T21:03:07.411Z,9.50
2018-03-26T21:05:36.040Z,9.40
2018-03-26T21:08:03.720Z,9.30
2018-03-26T21:10:32.564Z,9.20
2018-03-26T21:13:00.104Z,9.10
2018-03-26T21:15:27.629Z,9.10
2018-03-26T21:17:55.957Z,9.20
2018-03-26T21:20:23.857Z,9.20
2018-03-26T21:22:51.631Z,9.10
2018-03-26T21:25:20.129Z,9.00
2018-03-26T21:27:48.462Z,9.00
2018-03-26T21:30:16.173Z,8.70
2018-03-26T21:32:44.735Z,8.60
2018-03-26T21:35:12.289Z,8.50
2018-03-26T21:37:40.052Z,8.50
2018-03-26T21:40:07.624Z,8.50
2018-03-26T21:42:36.164Z,8.50
2018-03-26T21:45:04.016Z,8.60
2018-03-26T21:47:31.516Z,8.60
2018-03-26T21:49:59.054Z,8.50
2018-03-26T21:52:28.647Z,8.60
2018-03-26T21:54:56.207Z,8.60
2018-03-26T21:57:24.236Z,8.60
2018-03-26T21:59:51.903Z,8.60
2018-03-26T22:02:19.666Z,8.60
2018-03-26T22:04:47.830Z,8.60
2018-03-26T22:07:15.353Z,8.50
2018-03-26T22:09:44.172Z,8.20
2018-03-26T22:12:11.692Z,8.20
2018-03-26T22:14:39.174Z,8.20
2018-03-26T22:17:06.708Z,8.10
2018-03-26T22:19:34.404Z,8.20
2018-03-26T22:22:03.295Z,8.30
2018-03-26T22:24:31.631Z,8.30
2018-03-26T22:26:59.258Z,8.30
2018-03-26T22:29:26.865Z,8.30
2018-03-26T22:31:55.862Z,8.30
2018-03-26T22:34:23.370Z,8.20
2018-03-26T22:36:50.870Z,8.20
2018-03-26T22:39:18.847Z,8.20
2018-03-26T22:41:46.571Z,8.10
2018-03-26T22:44:15.988Z,8.00
2018-03-26T22:46:43.821Z,8.00
2018-03-26T22:49:11.377Z,7.90
2018-03-26T22:51:38.921Z,7.90
2018-03-26T22:54:06.463Z,7.90
2018-03-26T22:56:35.317Z,7.90
2018-03-26T22:59:02.844Z,7.90
2018-03-26T23:01:30.491Z,7.90
2018-03-26T23:03:59.537Z,7.90
2018-03-26T23:06:29.418Z,7.90
2018-03-26T23:08:57.003Z,8.00
2018-03-26T23:11:25.019Z,8.00
2018-03-26T23:13:53.345Z,8.00
2018-03-26T23:16:20.953Z,8.00
2018-03-26T23:18:48.519Z,8.10
2018-03-26T23:21:16.852Z,8.20
2018-03-26T23:23:44.364Z,8.20
2018-03-26T23:26:13.431Z,8.40
2018-03-26T23:28:41.003Z,8.40
2018-03-26T23:31:08.574Z,8.50
2018-03-26T23:33:37.492Z,8.50
2018-03-26T23:36:05.889Z,8.50
2018-03-26T23:38:33.418Z,8.40
2018-03-26T23:41:02.050Z,8.40
2018-03-26T23:43:29.756Z,8.40
2018-03-26T23:45:58.039Z,8.30
2018-03-26T23:48:26.955Z,8.30
2018-03-26T23:50:54.997Z,8.30
2018-03-26T23:53:23.288Z,8.20
2018-03-26T23:55:50.830Z,8.20
2018-03-26T23:58:18.355Z,8.20
